x

Muskegon, Mi (mkgm4) Weather Station

11:30am - Sun 21st Sep 2014 All times are CDT. -5 hours from GMT.

  • Wind
    26mph, 34mph gusts
  • Air Temp 57°f
  • Sea Pressure 1008.7mb
  • Muskegon, Mi
  • Muskegon, Mi

More Historic Weather Station data

Upgrade to MSW Pro to gain access to the past 30 days of data for over 8000 Wavebouys and Weather Stations around the globe.

Join Pro

Comparision Forecast

View Surf forecast
   
Sun 09/21 11:30am 26 34 mph 1008.7mb 57f
11:15am 30 39 mph 1008.3mb 58f
11:00am 30 38 mph 1008mb 58f
10:45am 30 39 mph 1007.7mb 58f
10:30am 32 37 mph 1007.5mb 57f
10:15am 30 37 mph 1007.2mb 58f
10:00am 30 38 mph 1007mb 58f
9:45am 32 40 mph 1006.7mb 58f
9:30am 30 37 mph 1006.4mb 58f
9:15am 31 37 mph 1006mb 58f
9:00am 31 38 mph 1005.7mb 58f
8:45am 26 31 mph 1005.9mb 57f
8:30am 30 34 mph 1005.9mb 58f
8:15am 31 34 mph 1005.7mb 59f
8:00am 32 36 mph 1005.6mb 59f
7:45am 29 33 mph 1005.6mb 59f
7:30am 30 34 mph 1005.4mb 60f
7:15am 28 33 mph 1005.2mb 60f
7:00am 25 32 mph 1005.1mb 60f
6:45am 28 30 mph 1005mb 60f
6:30am 28 32 mph 1004.9mb 60f
6:15am 26 31 mph 1004.7mb 60f
6:00am 30 36 mph 1004.7mb 60f
5:45am 24 28 mph 1004.6mb 60f
5:30am 25 29 mph 1004.5mb 60f
5:15am 26 32 mph 1004.5mb 60f
5:00am 29 33 mph 1004.5mb 60f
4:45am 26 32 mph 1004.3mb 60f
4:30am 25 30 mph 1004.2mb 61f
4:15am 24 30 mph 1004.4mb 61f
4:00am 22 26 mph 1004.2mb 61f
3:45am 16 18 mph 1004mb 61f
3:30am 17 20 mph 1004mb 61f
3:15am 13 14 mph 1003.8mb 61f
3:00am 13 14 mph 1003.7mb 61f
2:30am 13 14 mph 1003.5mb 61f
2:15am 14 16 mph 1003.4mb 61f
2:00am 23 28 mph 1003.7mb 61f
1:45am 24 28 mph 1003.7mb 61f
1:30am 29 38 mph 1004.1mb 61f
1:15am 16 20 mph 1003.1mb 65f
1:00am 17 18 mph 1003.6mb 65f
12:45am 17 18 mph 1003.8mb 65f
12:30am 17
mph
1004mb 65f
12:15am 17 18 mph 1004.6mb 64f
12:00am 16 18 mph 1004.8mb 64f
Sat 09/20 11:45pm 17 18 mph 1005.2mb 64f
11:30pm 16 18 mph 1005.4mb 64f
11:15pm 17 20 mph 1005.7mb 64f
11:00pm 16 20 mph 1006mb 64f
10:45pm 18 20 mph 1006.1mb 64f
10:30pm 20 22 mph 1006.3mb 65f
10:15pm 22 24 mph 1006.4mb 65f
10:00pm 21 23 mph 1006.5mb 64f
9:45pm 17 21 mph 1006.5mb 64f
9:30pm 20 22 mph 1006.9mb 64f
9:15pm 18 20 mph 1007mb 64f
9:00pm 18 20 mph 1007.2mb 64f
8:45pm 20 21 mph 1007.4mb 64f
8:30pm 20 22 mph 1007.5mb 64f
8:15pm 20 22 mph 1007.5mb 64f
8:00pm 18 20 mph 1007.4mb 64f
7:45pm 18 20 mph 1007.3mb 63f
7:30pm 17 18 mph 1007.2mb 62f
7:15pm 15 17 mph 1007.2mb 63f
7:00pm 18 21 mph 1007.2mb 63f
6:45pm 21 23 mph 1007.4mb 63f
6:30pm 22 24 mph 1007.2mb 64f
6:15pm 21 22 mph 1007mb 64f
6:00pm 18 20 mph 1006.8mb 64f
5:45pm 16 17 mph 1006.6mb 64f
5:30pm 18 20 mph 1006.8mb 65f
5:15pm 21 22 mph 1007mb 65f
5:00pm 22 25 mph 1007.2mb 64f
4:45pm 23 26 mph 1007.6mb 65f
4:30pm 28 31 mph 1008mb 65f
4:15pm 24 26 mph 1007.9mb 65f
4:00pm 25 28 mph 1007.9mb 65f
3:45pm 21 23 mph 1007.8mb 64f
3:30pm 23 26 mph 1008mb 64f
3:15pm 26 30 mph 1008.2mb 65f
3:00pm 26 31 mph 1008.5mb 64f
2:45pm 23 26 mph 1008.3mb 63f
2:30pm 20 23 mph 1008.2mb 63f
2:15pm 15 17 mph 1008.5mb 63f
2:00pm 14 15 mph 1008.9mb 63f
1:45pm 15 17 mph 1009.3mb 64f
1:30pm 16 17 mph 1009.3mb 64f
1:15pm 20 21 mph 1009.3mb 64f
1:00pm 23 25 mph 1009.4mb 64f
12:45pm 22 24 mph 1009.3mb 64f
12:30pm 22 24 mph 1009.5mb 65f
12:15pm 20 23 mph 1009.9mb 65f
12:00pm 20 21 mph 1009.9mb 64f
11:45am 20 21 mph 1010.2mb 63f
11:30am 18 20 mph 1010mb 63f
11:15am 21 22 mph 1010.3mb 64f
11:00am 17 18 mph 1010.8mb 66f
10:45am 15 17 mph 1010.6mb 66f
10:30am 13 14 mph 1010.7mb 64f
10:15am 10 13 mph 1010.8mb 65f
10:00am 11 14 mph 1011.1mb 65f
9:45am 10 13 mph 1011mb 64f
9:30am 13 14 mph 1010.9mb 64f
9:15am 15 17 mph 1010.8mb 63f
9:00am 18 21 mph 1010.2mb 64f
8:45am 20 23 mph 1010mb 64f
8:30am 22 25 mph 1009.9mb 64f
8:15am 23 25 mph 1010mb 63f
8:00am 24 28 mph 1009.8mb 63f
7:45am 23 28 mph 1010.2mb 63f
7:30am 23 26 mph 1010.8mb 63f
7:15am 24 28 mph 1010.9mb 63f
7:00am 24 26 mph 1011.1mb 63f
6:45am 24 28 mph 1011.3mb 63f
6:30am 23 26 mph 1011.2mb 63f
6:15am 25 29 mph 1011mb 63f
6:00am 25 28 mph 1011.2mb 63f
5:45am 26 31 mph 1011.5mb 63f
5:30am 26 30 mph 1011.7mb 64f
5:15am 24 26 mph 1011.8mb 64f
5:00am 24 28 mph 1011.9mb 64f
4:45am 24 28 mph 1011.9mb 63f
4:30am 24 26 mph 1012.3mb 63f
4:15am 24 32 mph 1012.3mb 63f
4:00am 23 26 mph 1012.3mb 63f
3:45am 23 26 mph 1012.2mb 64f
3:30am 24 28 mph 1012.1mb 64f
3:15am 24 28 mph 1012mb 64f
3:00am 24 28 mph 1011.8mb 64f
2:45am 23 26 mph 1012.1mb 64f
2:30am 22 24 mph 1012.6mb 63f
2:15am 20 22 mph 1013mb 63f
2:00am 20 21 mph 1013.2mb 63f
1:45am 20 22 mph 1013.2mb 63f
1:30am 21 22 mph 1013mb 63f
1:15am 18 21 mph 1013.1mb 63f
1:00am 22 23 mph 1013.1mb 63f
12:45am 23 24 mph 1013.2mb 63f
12:30am 24 28 mph 1013.3mb 64f
12:15am 24 28 mph 1013.2mb 63f
12:00am 24 25 mph 1013.3mb 63f
Fri 09/19 11:45pm 23 25 mph 1013.5mb 63f
11:30pm 25 29 mph 1013.6mb 63f
11:15pm 26 28 mph 1013.7mb 63f
11:00pm 26 30 mph 1013.8mb 63f
10:45pm 26 30 mph 1014.1mb 64f
10:30pm 25 29 mph 1014.1mb 63f
10:15pm 25 28 mph 1014.1mb 63f
10:00pm 24 28 mph 1014.3mb 63f
9:45pm 24 28 mph 1014.6mb 63f
9:30pm 23 28 mph 1014.6mb 63f
9:15pm 22 25 mph 1014.6mb 63f
9:00pm 21 25 mph 1014.9mb 63f
8:45pm 22 24 mph 1015mb 63f
8:30pm 20 23 mph 1015.3mb 63f
8:15pm 17 18 mph 1015.3mb 63f
8:00pm 15 17 mph 1015.4mb 62f
7:45pm 11 13 mph 1015.7mb 62f
7:30pm 14 15 mph 1015.4mb 62f
7:15pm 13 14 mph 1015.9mb 62f
7:00pm 10 13 mph 1016.1mb 62f
6:45pm 13 15 mph 1016.1mb 62f
6:30pm 11 13 mph 1016.4mb 62f
6:15pm 10 11 mph 1016.6mb 62f
6:00pm 15 16 mph 1016.6mb 64f
5:45pm 14 15 mph 1016.6mb 63f
5:30pm 13 14 mph 1016.6mb 64f
5:15pm 13 14 mph 1016.5mb 64f
5:00pm 10 13 mph 1016.9mb 65f
4:45pm 13 15 mph 1017mb 65f
4:30pm 15 16 mph 1017.2mb 65f
4:15pm 15 16 mph 1017.3mb 65f
4:00pm 14 16 mph 1017.5mb 66f
3:45pm 14 15 mph 1017.8mb 66f
3:30pm 15 16 mph 1018mb 66f
3:15pm 15 16 mph 1018.6mb 66f
3:00pm 15 16 mph 1019mb 66f
2:45pm 15 16 mph 1019.3mb 65f
2:30pm 14 15 mph 1019.5mb 66f
2:15pm 14 15 mph 1019.5mb 66f
2:00pm 15 16 mph 1019.6mb 66f
1:45pm 14 15 mph 1019.8mb 66f
1:30pm 14 16 mph 1020.2mb 66f
1:15pm 14 15 mph 1020.4mb 66f
1:00pm 13 15 mph 1020.7mb 65f
12:45pm 14 15 mph 1021mb 64f
12:30pm 14 15 mph 1020.7mb 64f
12:15pm 11 14 mph 1020.9mb 64f
12:00pm 11 15 mph 1020.8mb 64f
11:45am 13 15 mph 1021.1mb 64f
11:30am 11 13 mph 1021.8mb 63f
11:15am 10 13 mph 1021.8mb 62f
11:00am 10 15 mph 1021.9mb 63f
10:45am 10 15 mph 1022mb 62f
10:30am 9 17 mph 1022mb 62f
10:15am 8 11 mph 1022.2mb 61f
10:00am 9 13 mph 1022.3mb 60f
9:45am 8 11 mph 1022.5mb 59f
9:30am 9 11 mph 1022.7mb 58f
9:15am 8 13 mph 1022.9mb 57f
9:00am 6 9 mph 1023mb 56f
8:45am 7 11 mph 1023.4mb 55f
8:30am 6 10 mph 1023.4mb 53f
8:15am 9 15 mph 1023.6mb 52f
8:00am 8 13 mph 1023.7mb 50f
7:45am 9 11 mph 1023.9mb 49f
7:30am 7 11 mph 1023.9mb 49f
7:15am 9 14 mph 1024mb 48f
7:00am 7 14 mph 1023.8mb 49f
6:45am 8 14 mph 1023.7mb 49f
6:30am 9 15 mph 1023.4mb 49f
6:15am 8 13 mph 1023.3mb 49f
6:00am 9 13 mph 1023.2mb 49f
5:45am 10 14 mph 1023.3mb 49f
5:30am 9 13 mph 1023.4mb 49f
5:15am 10 14 mph 1023.4mb 49f
5:00am 9 15 mph 1023.3mb 49f
4:45am 9 15 mph 1023.3mb 49f
4:30am 8 13 mph 1023.2mb 49f
4:15am 8 11 mph 1023mb 50f
4:00am 10 16 mph 1022.8mb 50f
3:45am 11 16 mph 1022.6mb 50f
3:30am 13 16 mph 1022.7mb 50f
3:15am 14 16 mph 1022.8mb 50f
3:00am 13 16 mph 1022.9mb 50f
2:45am 15 21 mph 1022.9mb 51f
2:30am 15 20 mph 1023mb 51f
2:15am 15 20 mph 1023.2mb 51f
2:00am 15 18 mph 1023.3mb 51f
1:45am 15 21 mph 1023.4mb 51f
1:30am 14 18 mph 1023.5mb 51f
1:15am 14 18 mph 1023.4mb 52f
1:00am 13 18 mph 1023.3mb 52f
12:45am 13 16 mph 1023.2mb 52f
12:30am 13 16 mph 1023.2mb 52f
12:15am 13 17 mph 1023.2mb 53f
12:00am 14 18 mph 1023.3mb 53f
Thu 09/18 11:45pm 13 17 mph 1023.1mb 53f
11:30pm 13 16 mph 1023mb 54f
11:15pm 11 15 mph 1022.8mb 54f
11:00pm 13 17 mph 1022.8mb 54f
10:45pm 9 14 mph 1022.8mb 55f
10:30pm 9 11 mph 1022.7mb 55f
10:15pm 9 13 mph 1022.7mb 55f
10:00pm 9 13 mph 1022.6mb 55f
9:45pm 10 14 mph 1022.6mb 56f
9:30pm 10 14 mph 1022.5mb 56f
9:15pm 9 11 mph 1022.5mb 57f
9:00pm 11 16 mph 1022.3mb 57f
8:45pm 13 16 mph 1022.2mb 58f
8:30pm 8 11 mph 1022.1mb 59f
8:15pm 8 11 mph 1021.8mb 59f
8:00pm 7 9 mph 1021.5mb 60f
7:45pm 3 7 mph 1021.4mb 59f
7:30pm 5 6 mph 1021.2mb 59f
7:15pm 5 7 mph 1021.1mb 59f
7:00pm 7 9 mph 1020.9mb 59f
6:45pm 9 10 mph 1020.8mb 60f
6:30pm 9 10 mph 1020.7mb 60f
6:15pm 9 10 mph 1020.5mb 61f
6:00pm 10 11 mph 1020.5mb 62f
5:45pm 8 10 mph 1020.5mb 63f
5:30pm 9 10 mph 1020.4mb 62f
5:15pm 8 9 mph 1020.5mb 63f
5:00pm 8 9 mph 1020.5mb 63f
4:45pm 8 9 mph 1020.6mb 63f
4:30pm 8 9 mph 1020.7mb 63f
4:15pm 9 10 mph 1020.9mb 62f
4:00pm 10 11 mph 1020.9mb 62f
3:45pm 8 11 mph 1020.9mb 63f
3:30pm 10 13 mph 1021mb 62f
3:15pm 9 11 mph 1021.1mb 62f
3:00pm 9 10 mph 1021.2mb 62f
2:45pm 9 10 mph 1021.3mb 62f
2:30pm 10 11 mph 1021.5mb 62f
2:15pm 11 13 mph 1021.7mb 62f
2:00pm 9 11 mph 1021.8mb 62f
1:45pm 10 11 mph 1021.8mb 63f
1:30pm 8 9 mph 1021.9mb 62f
1:15pm 7
mph
1022mb 61f
1:00pm 6 7 mph 1021.9mb 61f
12:45pm 5 6 mph 1022.1mb 61f
12:30pm 6
mph
1022mb 61f
12:15pm 5 6 mph 1022mb 61f
12:00pm 5 6 mph 1022mb 61f
11:45am 3 5 mph 1021.8mb 62f
11:30am 5 8 mph 1021.8mb 61f
11:15am 7 9 mph 1021.8mb 60f
11:00am 6 9 mph 1021.8mb 60f
10:45am 8 11 mph 1021.8mb 60f
10:30am 9 11 mph 1021.9mb 58f
10:15am 8 13 mph 1021.9mb 57f
10:00am 10 14 mph 1021.8mb 56f
9:45am 11 14 mph 1021.9mb 55f
9:30am 10 13 mph 1021.7mb 55f
9:15am 10 14 mph 1021.6mb 55f
9:00am 10 14 mph 1021.4mb 54f
8:45am 10 15 mph 1021.2mb 53f
8:30am 9 14 mph 1020.9mb 54f
8:15am 10 14 mph 1020.6mb 54f
8:00am 9 14 mph 1020.5mb 53f
7:45am 9 13 mph 1020.3mb 53f
7:30am 9 13 mph 1020.2mb 53f
7:15am 10 13 mph 1020.1mb 52f
7:00am 10 14 mph 1020mb 52f
6:45am 11 14 mph 1020mb 52f
6:30am 10 13 mph 1020mb 51f
6:15am 10 13 mph 1019.9mb 51f
6:00am 9 11 mph 1019.7mb 53f
5:45am 9 11 mph 1019.7mb 52f
5:30am 10 11 mph 1019.6mb 52f
5:15am 10 11 mph 1019.4mb 52f
5:00am 10 11 mph 1019.3mb 51f
4:45am 10 11 mph 1019mb 51f
4:30am 10 11 mph 1018.8mb 51f
4:15am 10 13 mph 1018.8mb 51f
4:00am 10 11 mph 1018.7mb 51f
3:45am 9 10 mph 1018.5mb 52f
3:30am 8 10 mph 1018.5mb 52f
3:15am 8 10 mph 1018.5mb 51f
3:00am 9 10 mph 1018.5mb 51f
2:45am 9 10 mph 1018.6mb 51f
2:30am 5 7 mph 1018.3mb 53f
2:15am 6 7 mph 1018.1mb 54f
2:00am 6 7 mph 1018mb 54f
1:45am 3 5 mph 1018mb 53f
1:30am 3 5 mph 1018mb 53f
1:15am 3
mph
1017.8mb 53f
1:00am 2 3 mph 1017.8mb 53f
12:45am 3 5 mph 1017.7mb 54f
12:30am 5
mph
1017.6mb 54f
12:15am 6
mph
1017.5mb 54f
12:00am 5
mph
1017.7mb 54f
Wed 09/17 11:45pm 3 5 mph 1017.6mb 54f
11:30pm 5
mph
1017.7mb 54f
11:15pm 3 5 mph 1017.7mb 54f
11:00pm 5 6 mph 1017.6mb 54f
10:45pm 5
mph
1017.4mb 55f
10:30pm 6
mph
1017.4mb 55f
10:15pm 5 6 mph 1017.3mb 56f
10:00pm 5 6 mph 1017.1mb 56f
9:45pm 6 7 mph 1016.9mb 56f
9:30pm 7
mph
1016.9mb 55f
9:15pm 5
mph
1016.7mb 56f
9:00pm 5 6 mph 1016.8mb 55f
8:45pm 5
mph
1016.7mb 56f
8:30pm 5
mph
1016.6mb 57f
8:15pm 3 5 mph 1016.4mb 57f
8:00pm 3 5 mph 1016.2mb 58f
7:45pm 5 6 mph 1016mb 62f
7:30pm 5 6 mph 1016mb 60f
7:15pm 5
mph
1015.8mb 61f
7:00pm 5
mph
1015.8mb 62f
6:45pm 5
mph
1015.7mb 62f
6:30pm 5 6 mph 1015.8mb 62f
6:15pm 7 8 mph 1015.8mb 62f
6:00pm 7 8 mph 1015.8mb 62f
5:45pm 8
mph
1015.9mb 63f
5:30pm 6 8 mph 1015.9mb 63f